Череповец

Карта отелей и гостиниц, располагающихся рядом с аэропортом Череповец :

Череповец Вологодская область 59° 16' 33.78" N, 38° 1' 7.5" E
Код аэродрома ИКАО
ULWC
Код аэродрома RU
УЛВЦ
Координаты
N59.27605° E038.01875°
Превышение над уровнем моря
115
Основная полоса
03/21
Курс магнитный
029,4/209,4
Длина основной ВПП
2523
Ширина основной ВПП
42
Покрытие основной ВПП
Твёрдое
Освещение ВПП
Постоянное
Тип: 
Аэродром
Класс аэродрома: 
Международный
Принадлежность: 
ГА
Статус: 
Действующий
Сайт: 
severstal-avia.com
E-mail аэродрома: 
pdsp@severstal-avia.ru
Страна: 
Россия
Регион: 
Вологодская область
Дополнительная информация: 
Оператор: ООО "Авиапредприятие "Северсталь". Нкр=(600)м. Параллельная ГВПП-03/21 (1724x90м) не поддерживается.
Схемы аэропортов: 
Погода: 

Авиационная погода в Череповце

Регион: 
Погода METAR: 
ULWC 221800Z 06002MPS 9999 -SN BKN010 M09/M11 Q1018 R03/490536 NOSIG RMK QFE753/1005
Время наблюдения
2022-01-22T18:00:00Z
Температура C
-9.0
Точка росы
-11.0
Направление ветра
60
Скорость ветра (узлы)
4
Метео видимость
6.21
Облачность
BKN
Нижняя граница облачности (футы)
1000
Явления погоды
-SN
Условия полета
MVFR
Аэропорт подробнее: 
BKN – значительная (рассеянная, разорванная) облачность;
-SN – слабый снег;

Найти трансфер

С помощью этой формы Вы можете найти трансфер из аэропорта Череповец в город, аэропорт или вокзал:

Погода в аэропортах:

Авиационная погода в Магнитогорске

Погода METAR: 
USCM 221800Z 31002MPS 4700 BR SCT040 M20/M21 Q1028 R18/090060 TEMPO 0300 FZFG VV002 RMK QFE733
Время наблюдения
2022-01-22T18:00:00Z
Температура C
-20.0
Точка росы
-21.0
Направление ветра
310
Скорость ветра (узлы)
4
Метео видимость
2.92
Облачность
SCT
Нижняя граница облачности (футы)
4000
Явления погоды
BR
Условия полета
IFR
Аэропорт подробнее: 
SCT – разбросанная отдельная облачность;
BR – дымка (видимость от 1 до 9 км);

Авиационная погода в Талды-Коргане

Регион: 
Погода METAR: 
UAAT 221139Z 25002MPS 210V320 2700 BR FEW001 SCT200 M09/M12 Q1022 NOSIG RMK QBB050 QFE715/0953
Время наблюдения
2022-01-22T11:39:00Z
Температура C
-9.0
Точка росы
-12.0
Направление ветра
250
Скорость ветра (узлы)
4
Метео видимость
1.68
Облачность
FEW
SCT
Нижняя граница облачности (футы)
100
20000
Явления погоды
BR
Условия полета
IFR
Аэропорт подробнее: 
FEW – незначительная облачность; SCT – разбросанная отдельная облачность;
BR – дымка (видимость от 1 до 9 км);

Авиационная погода в Челябинске

Регион: 
Погода METAR: 
USCC 221800Z 11001MPS 2800 BR FU NSC M21/M24 Q1030 R27/420350 NOSIG RMK QFE752
Время наблюдения
2022-01-22T18:00:00Z
Температура C
-21.0
Точка росы
-24.0
Направление ветра
110
Скорость ветра (узлы)
2
Метео видимость
1.74
Облачность
CLR
Нижняя граница облачности (футы)
Явления погоды
BR FU
Условия полета
IFR
Аэропорт подробнее: 
CLR — нет облаков ниже 3000 м
BR – дымка (видимость от 1 до 9 км); FU – дым (видимость менее 10 км);

Авиационная погода в аэропорту Новый

Регион: 
Погода METAR: 
UHHH 221800Z 19001MPS 4200 FU NSC M29/M32 Q1027 R23R/090060 NOSIG RMK QFE764/1019
Время наблюдения
2022-01-22T18:00:00Z
Температура C
-29.0
Точка росы
-32.0
Направление ветра
190
Скорость ветра (узлы)
2
Метео видимость
2.61
Облачность
CLR
Нижняя граница облачности (футы)
Явления погоды
FU
Условия полета
IFR
Аэропорт подробнее: 
CLR — нет облаков ниже 3000 м
FU – дым (видимость менее 10 км);